sensor_id;sensor_type;location;lat;lon;timestamp;P1;durP1;ratioP1;P2;durP2;ratioP2
14007;SDS011;61651;45.508;12.232;2023-04-12T00:02:20;8.60;;;7.80;;
14007;SDS011;61651;45.508;12.232;2023-04-12T00:05:23;9.70;;;8.20;;
14007;SDS011;61651;45.508;12.232;2023-04-12T00:08:27;9.70;;;8.60;;
14007;SDS011;61651;45.508;12.232;2023-04-12T00:11:32;9.00;;;7.97;;
14007;SDS011;61651;45.508;12.232;2023-04-12T00:14:34;8.15;;;7.18;;
14007;SDS011;61651;45.508;12.232;2023-04-12T00:17:36;8.80;;;7.57;;
14007;SDS011;61651;45.508;12.232;2023-04-12T00:20:39;9.53;;;7.57;;
14007;SDS011;61651;45.508;12.232;2023-04-12T00:23:41;9.07;;;7.97;;
14007;SDS011;61651;45.508;12.232;2023-04-12T00:26:44;10.43;;;8.67;;
14007;SDS011;61651;45.508;12.232;2023-04-12T00:29:46;9.33;;;8.37;;
14007;SDS011;61651;45.508;12.232;2023-04-12T00:32:48;10.65;;;8.40;;
14007;SDS011;61651;45.508;12.232;2023-04-12T00:35:51;12.60;;;7.37;;
14007;SDS011;61651;45.508;12.232;2023-04-12T00:38:53;7.90;;;7.17;;
14007;SDS011;61651;45.508;12.232;2023-04-12T00:41:55;9.87;;;8.73;;
14007;SDS011;61651;45.508;12.232;2023-04-12T00:44:57;9.23;;;7.73;;
14007;SDS011;61651;45.508;12.232;2023-04-12T00:47:59;8.80;;;7.90;;
14007;SDS011;61651;45.508;12.232;2023-04-12T00:51:03;9.67;;;7.80;;
14007;SDS011;61651;45.508;12.232;2023-04-12T00:54:07;8.27;;;7.07;;
14007;SDS011;61651;45.508;12.232;2023-04-12T00:57:10;7.20;;;6.50;;
14007;SDS011;61651;45.508;12.232;2023-04-12T01:00:12;9.30;;;6.60;;
14007;SDS011;61651;45.508;12.232;2023-04-12T01:03:16;10.70;;;7.60;;
14007;SDS011;61651;45.508;12.232;2023-04-12T01:06:25;8.30;;;7.43;;
14007;SDS011;61651;45.508;12.232;2023-04-12T01:09:35;8.03;;;7.23;;
14007;SDS011;61651;45.508;12.232;2023-04-12T01:12:49;9.17;;;7.23;;
14007;SDS011;61651;45.508;12.232;2023-04-12T01:15:59;7.63;;;6.80;;
14007;SDS011;61651;45.508;12.232;2023-04-12T01:19:18;8.37;;;6.53;;
14007;SDS011;61651;45.508;12.232;2023-04-12T01:22:57;7.67;;;6.53;;
14007;SDS011;61651;45.508;12.232;2023-04-12T01:26:19;7.60;;;6.80;;
14007;SDS011;61651;45.508;12.232;2023-04-12T01:29:34;8.33;;;6.90;;
14007;SDS011;61651;45.508;12.232;2023-04-12T01:32:37;9.00;;;7.53;;
14007;SDS011;61651;45.508;12.232;2023-04-12T01:35:40;8.63;;;7.70;;
14007;SDS011;61651;45.508;12.232;2023-04-12T01:38:43;7.23;;;6.53;;
14007;SDS011;61651;45.508;12.232;2023-04-12T01:41:46;7.93;;;7.13;;
14007;SDS011;61651;45.508;12.232;2023-04-12T01:44:50;7.93;;;6.30;;
14007;SDS011;61651;45.508;12.232;2023-04-12T01:47:52;8.63;;;6.67;;
14007;SDS011;61651;45.508;12.232;2023-04-12T01:50:57;7.33;;;6.53;;
14007;SDS011;61651;45.508;12.232;2023-04-12T01:54:07;7.77;;;6.50;;
14007;SDS011;61651;45.508;12.232;2023-04-12T01:57:11;8.90;;;6.87;;
14007;SDS011;61651;45.508;12.232;2023-04-12T02:00:17;7.20;;;6.50;;
14007;SDS011;61651;45.508;12.232;2023-04-12T02:03:21;8.60;;;7.70;;
14007;SDS011;61651;45.508;12.232;2023-04-12T02:06:24;8.13;;;6.63;;
14007;SDS011;61651;45.508;12.232;2023-04-12T02:09:27;7.70;;;6.90;;
14007;SDS011;61651;45.508;12.232;2023-04-12T02:12:29;9.10;;;8.03;;
14007;SDS011;61651;45.508;12.232;2023-04-12T02:15:33;7.90;;;7.10;;
14007;SDS011;61651;45.508;12.232;2023-04-12T02:18:36;9.33;;;8.33;;
14007;SDS011;61651;45.508;12.232;2023-04-12T02:21:40;9.93;;;8.90;;
14007;SDS011;61651;45.508;12.232;2023-04-12T02:24:43;11.33;;;8.57;;
14007;SDS011;61651;45.508;12.232;2023-04-12T02:27:45;9.93;;;8.30;;
14007;SDS011;61651;45.508;12.232;2023-04-12T02:30:49;10.33;;;8.17;;
14007;SDS011;61651;45.508;12.232;2023-04-12T02:33:53;10.30;;;8.73;;
14007;SDS011;61651;45.508;12.232;2023-04-12T02:36:54;10.43;;;8.37;;
14007;SDS011;61651;45.508;12.232;2023-04-12T02:39:56;10.27;;;8.67;;
14007;SDS011;61651;45.508;12.232;2023-04-12T02:43:01;9.47;;;8.47;;
14007;SDS011;61651;45.508;12.232;2023-04-12T02:46:05;10.97;;;9.33;;
14007;SDS011;61651;45.508;12.232;2023-04-12T02:49:07;10.73;;;8.23;;
14007;SDS011;61651;45.508;12.232;2023-04-12T02:52:09;12.47;;;8.97;;
14007;SDS011;61651;45.508;12.232;2023-04-12T02:55:11;8.80;;;7.90;;
14007;SDS011;61651;45.508;12.232;2023-04-12T02:58:13;9.87;;;8.87;;
14007;SDS011;61651;45.508;12.232;2023-04-12T03:01:17;9.73;;;8.70;;
14007;SDS011;61651;45.508;12.232;2023-04-12T03:04:19;11.07;;;9.83;;
14007;SDS011;61651;45.508;12.232;2023-04-12T03:07:21;10.33;;;9.23;;
14007;SDS011;61651;45.508;12.232;2023-04-12T03:10:23;10.53;;;9.40;;
14007;SDS011;61651;45.508;12.232;2023-04-12T03:13:25;11.07;;;9.53;;
14007;SDS011;61651;45.508;12.232;2023-04-12T03:16:28;10.27;;;8.67;;
14007;SDS011;61651;45.508;12.232;2023-04-12T03:19:31;9.43;;;8.47;;
14007;SDS011;61651;45.508;12.232;2023-04-12T03:22:34;10.83;;;9.37;;
14007;SDS011;61651;45.508;12.232;2023-04-12T03:25:36;10.93;;;9.20;;
14007;SDS011;61651;45.508;12.232;2023-04-12T03:28:39;12.03;;;8.70;;
14007;SDS011;61651;45.508;12.232;2023-04-12T03:31:43;11.47;;;9.93;;
14007;SDS011;61651;45.508;12.232;2023-04-12T03:34:45;10.37;;;8.97;;
14007;SDS011;61651;45.508;12.232;2023-04-12T03:37:47;12.60;;;10.07;;
14007;SDS011;61651;45.508;12.232;2023-04-12T03:40:49;11.03;;;9.60;;
14007;SDS011;61651;45.508;12.232;2023-04-12T03:43:51;10.27;;;8.93;;
14007;SDS011;61651;45.508;12.232;2023-04-12T03:46:54;12.47;;;9.50;;
14007;SDS011;61651;45.508;12.232;2023-04-12T03:49:57;10.03;;;8.93;;
14007;SDS011;61651;45.508;12.232;2023-04-12T03:53:05;15.00;;;9.43;;
14007;SDS011;61651;45.508;12.232;2023-04-12T03:56:07;10.30;;;9.27;;
14007;SDS011;61651;45.508;12.232;2023-04-12T03:59:11;10.43;;;9.23;;
14007;SDS011;61651;45.508;12.232;2023-04-12T04:02:15;11.27;;;10.07;;
14007;SDS011;61651;45.508;12.232;2023-04-12T04:05:17;9.83;;;8.83;;
14007;SDS011;61651;45.508;12.232;2023-04-12T04:08:19;12.87;;;9.83;;
14007;SDS011;61651;45.508;12.232;2023-04-12T04:11:21;13.40;;;9.90;;
14007;SDS011;61651;45.508;12.232;2023-04-12T04:14:23;12.10;;;9.37;;
14007;SDS011;61651;45.508;12.232;2023-04-12T04:17:28;11.80;;;10.50;;
14007;SDS011;61651;45.508;12.232;2023-04-12T04:20:30;12.47;;;10.40;;
14007;SDS011;61651;45.508;12.232;2023-04-12T04:23:32;10.90;;;9.33;;
14007;SDS011;61651;45.508;12.232;2023-04-12T04:26:37;14.27;;;10.03;;
14007;SDS011;61651;45.508;12.232;2023-04-12T04:29:39;16.00;;;9.50;;
14007;SDS011;61651;45.508;12.232;2023-04-12T04:32:45;13.40;;;10.43;;
14007;SDS011;61651;45.508;12.232;2023-04-12T04:35:47;16.30;;;10.13;;
14007;SDS011;61651;45.508;12.232;2023-04-12T04:38:51;11.57;;;10.43;;
14007;SDS011;61651;45.508;12.232;2023-04-12T04:41:53;12.03;;;10.37;;
14007;SDS011;61651;45.508;12.232;2023-04-12T04:44:56;13.03;;;10.57;;
14007;SDS011;61651;45.508;12.232;2023-04-12T04:48:05;13.47;;;9.23;;
14007;SDS011;61651;45.508;12.232;2023-04-12T04:51:07;14.80;;;10.20;;
14007;SDS011;61651;45.508;12.232;2023-04-12T04:54:09;13.57;;;10.17;;
14007;SDS011;61651;45.508;12.232;2023-04-12T04:57:12;13.33;;;9.67;;
14007;SDS011;61651;45.508;12.232;2023-04-12T05:00:14;14.10;;;10.27;;
14007;SDS011;61651;45.508;12.232;2023-04-12T05:03:18;13.10;;;10.33;;
14007;SDS011;61651;45.508;12.232;2023-04-12T05:06:20;13.53;;;10.50;;
14007;SDS011;61651;45.508;12.232;2023-04-12T05:09:22;9.97;;;8.73;;
14007;SDS011;61651;45.508;12.232;2023-04-12T05:12:24;11.33;;;9.97;;
14007;SDS011;61651;45.508;12.232;2023-04-12T05:15:26;15.07;;;10.13;;
14007;SDS011;61651;45.508;12.232;2023-04-12T05:18:31;12.17;;;9.60;;
14007;SDS011;61651;45.508;12.232;2023-04-12T05:21:33;12.87;;;10.43;;
14007;SDS011;61651;45.508;12.232;2023-04-12T05:24:35;14.23;;;10.03;;
14007;SDS011;61651;45.508;12.232;2023-04-12T05:27:37;12.97;;;10.70;;
14007;SDS011;61651;45.508;12.232;2023-04-12T05:30:39;12.17;;;9.80;;
14007;SDS011;61651;45.508;12.232;2023-04-12T05:33:42;12.97;;;10.03;;
14007;SDS011;61651;45.508;12.232;2023-04-12T05:36:44;11.50;;;9.93;;
14007;SDS011;61651;45.508;12.232;2023-04-12T05:39:46;13.37;;;10.93;;
14007;SDS011;61651;45.508;12.232;2023-04-12T05:42:48;11.23;;;9.73;;
14007;SDS011;61651;45.508;12.232;2023-04-12T05:45:50;11.17;;;9.67;;
14007;SDS011;61651;45.508;12.232;2023-04-12T05:48:53;15.07;;;10.90;;
14007;SDS011;61651;45.508;12.232;2023-04-12T05:51:56;13.63;;;10.90;;
14007;SDS011;61651;45.508;12.232;2023-04-12T05:54:58;11.60;;;9.50;;
14007;SDS011;61651;45.508;12.232;2023-04-12T05:58:00;11.50;;;10.30;;
14007;SDS011;61651;45.508;12.232;2023-04-12T06:01:03;15.40;;;10.70;;
14007;SDS011;61651;45.508;12.232;2023-04-12T06:04:07;11.33;;;10.17;;
14007;SDS011;61651;45.508;12.232;2023-04-12T06:07:09;11.33;;;9.80;;
14007;SDS011;61651;45.508;12.232;2023-04-12T06:10:12;12.37;;;10.30;;
14007;SDS011;61651;45.508;12.232;2023-04-12T06:13:16;10.70;;;9.37;;
14007;SDS011;61651;45.508;12.232;2023-04-12T06:16:17;14.77;;;10.47;;
14007;SDS011;61651;45.508;12.232;2023-04-12T06:19:21;11.80;;;9.97;;
14007;SDS011;61651;45.508;12.232;2023-04-12T06:22:23;13.52;;;10.55;;
14007;SDS011;61651;45.508;12.232;2023-04-12T06:25:25;14.25;;;10.23;;
14007;SDS011;61651;45.508;12.232;2023-04-12T06:28:28;11.30;;;9.57;;
14007;SDS011;61651;45.508;12.232;2023-04-12T06:31:30;11.17;;;9.37;;
14007;SDS011;61651;45.508;12.232;2023-04-12T06:34:34;11.02;;;9.48;;
14007;SDS011;61651;45.508;12.232;2023-04-12T06:37:39;12.77;;;10.07;;
14007;SDS011;61651;45.508;12.232;2023-04-12T06:40:41;13.57;;;9.98;;
14007;SDS011;61651;45.508;12.232;2023-04-12T06:43:43;12.50;;;10.18;;
14007;SDS011;61651;45.508;12.232;2023-04-12T06:46:45;11.95;;;9.48;;
14007;SDS011;61651;45.508;12.232;2023-04-12T06:49:49;12.90;;;9.80;;
14007;SDS011;61651;45.508;12.232;2023-04-12T06:52:54;10.03;;;9.03;;
14007;SDS011;61651;45.508;12.232;2023-04-12T06:55:56;10.20;;;8.82;;
14007;SDS011;61651;45.508;12.232;2023-04-12T06:58:58;12.15;;;8.82;;
14007;SDS011;61651;45.508;12.232;2023-04-12T07:02:00;10.63;;;8.70;;
14007;SDS011;61651;45.508;12.232;2023-04-12T07:05:03;10.55;;;9.23;;
14007;SDS011;61651;45.508;12.232;2023-04-12T07:08:06;23.77;;;14.35;;
14007;SDS011;61651;45.508;12.232;2023-04-12T07:11:09;12.50;;;9.10;;
14007;SDS011;61651;45.508;12.232;2023-04-12T07:14:11;15.25;;;10.02;;
14007;SDS011;61651;45.508;12.232;2023-04-12T07:17:13;18.20;;;14.57;;
14007;SDS011;61651;45.508;12.232;2023-04-12T07:20:16;18.35;;;12.95;;
14007;SDS011;61651;45.508;12.232;2023-04-12T07:23:18;11.30;;;9.77;;
14007;SDS011;61651;45.508;12.232;2023-04-12T07:26:20;11.90;;;8.68;;
14007;SDS011;61651;45.508;12.232;2023-04-12T07:29:22;11.65;;;9.10;;
14007;SDS011;61651;45.508;12.232;2023-04-12T07:32:24;10.52;;;8.57;;
14007;SDS011;61651;45.508;12.232;2023-04-12T07:35:27;10.75;;;8.90;;
14007;SDS011;61651;45.508;12.232;2023-04-12T07:38:29;10.05;;;8.95;;
14007;SDS011;61651;45.508;12.232;2023-04-12T07:41:31;10.82;;;8.82;;
14007;SDS011;61651;45.508;12.232;2023-04-12T07:44:33;9.35;;;8.25;;
14007;SDS011;61651;45.508;12.232;2023-04-12T07:47:35;12.02;;;8.55;;
14007;SDS011;61651;45.508;12.232;2023-04-12T07:50:38;10.98;;;7.95;;
14007;SDS011;61651;45.508;12.232;2023-04-12T07:53:40;10.38;;;8.40;;
14007;SDS011;61651;45.508;12.232;2023-04-12T07:56:56;9.00;;;7.88;;
14007;SDS011;61651;45.508;12.232;2023-04-12T07:59:58;9.00;;;7.70;;
14007;SDS011;61651;45.508;12.232;2023-04-12T08:03:00;8.90;;;7.78;;
14007;SDS011;61651;45.508;12.232;2023-04-12T08:06:04;8.98;;;7.53;;
14007;SDS011;61651;45.508;12.232;2023-04-12T08:09:07;9.10;;;7.78;;
14007;SDS011;61651;45.508;12.232;2023-04-12T08:12:09;8.57;;;7.72;;
14007;SDS011;61651;45.508;12.232;2023-04-12T08:15:11;9.70;;;8.70;;
14007;SDS011;61651;45.508;12.232;2023-04-12T08:18:14;10.40;;;7.30;;
14007;SDS011;61651;45.508;12.232;2023-04-12T08:21:17;13.65;;;7.88;;
14007;SDS011;61651;45.508;12.232;2023-04-12T08:24:19;10.88;;;8.00;;
14007;SDS011;61651;45.508;12.232;2023-04-12T08:27:21;9.85;;;7.25;;
14007;SDS011;61651;45.508;12.232;2023-04-12T08:30:23;8.90;;;7.88;;
14007;SDS011;61651;45.508;12.232;2023-04-12T08:33:27;8.73;;;7.50;;
14007;SDS011;61651;45.508;12.232;2023-04-12T08:36:30;9.25;;;6.90;;
14007;SDS011;61651;45.508;12.232;2023-04-12T08:39:32;9.35;;;7.88;;
14007;SDS011;61651;45.508;12.232;2023-04-12T08:42:34;9.38;;;6.80;;
14007;SDS011;61651;45.508;12.232;2023-04-12T08:45:37;11.57;;;7.53;;
14007;SDS011;61651;45.508;12.232;2023-04-12T08:48:39;8.70;;;7.53;;
14007;SDS011;61651;45.508;12.232;2023-04-12T08:51:43;14.50;;;7.25;;
14007;SDS011;61651;45.508;12.232;2023-04-12T08:54:46;13.52;;;8.73;;
14007;SDS011;61651;45.508;12.232;2023-04-12T08:57:48;8.63;;;7.63;;
14007;SDS011;61651;45.508;12.232;2023-04-12T09:00:54;9.18;;;7.28;;
14007;SDS011;61651;45.508;12.232;2023-04-12T09:03:56;8.20;;;7.30;;
14007;SDS011;61651;45.508;12.232;2023-04-12T09:06:59;9.60;;;7.28;;
14007;SDS011;61651;45.508;12.232;2023-04-12T09:10:02;7.97;;;6.55;;
14007;SDS011;61651;45.508;12.232;2023-04-12T09:13:05;8.77;;;6.88;;
14007;SDS011;61651;45.508;12.232;2023-04-12T09:16:07;7.82;;;6.80;;
14007;SDS011;61651;45.508;12.232;2023-04-12T09:19:10;7.40;;;6.68;;
14007;SDS011;61651;45.508;12.232;2023-04-12T09:22:13;8.45;;;7.15;;
14007;SDS011;61651;45.508;12.232;2023-04-12T09:25:15;9.60;;;7.20;;
14007;SDS011;61651;45.508;12.232;2023-04-12T09:28:18;9.70;;;7.05;;
14007;SDS011;61651;45.508;12.232;2023-04-12T09:31:24;9.93;;;6.07;;
14007;SDS011;61651;45.508;12.232;2023-04-12T09:34:26;7.05;;;6.35;;
14007;SDS011;61651;45.508;12.232;2023-04-12T09:37:30;8.07;;;6.65;;
14007;SDS011;61651;45.508;12.232;2023-04-12T09:40:32;7.93;;;7.13;;
14007;SDS011;61651;45.508;12.232;2023-04-12T09:43:36;8.02;;;6.95;;
14007;SDS011;61651;45.508;12.232;2023-04-12T09:46:44;9.55;;;6.50;;
14007;SDS011;61651;45.508;12.232;2023-04-12T09:49:50;6.85;;;6.18;;
14007;SDS011;61651;45.508;12.232;2023-04-12T09:52:54;8.93;;;7.05;;
14007;SDS011;61651;45.508;12.232;2023-04-12T09:55:56;7.20;;;6.10;;
14007;SDS011;61651;45.508;12.232;2023-04-12T09:59:00;7.18;;;6.35;;
14007;SDS011;61651;45.508;12.232;2023-04-12T10:02:05;6.93;;;6.22;;
14007;SDS011;61651;45.508;12.232;2023-04-12T10:05:12;7.05;;;6.35;;
14007;SDS011;61651;45.508;12.232;2023-04-12T10:08:16;7.47;;;6.40;;
14007;SDS011;61651;45.508;12.232;2023-04-12T10:11:19;6.93;;;6.22;;
14007;SDS011;61651;45.508;12.232;2023-04-12T10:14:21;8.32;;;6.47;;
14007;SDS011;61651;45.508;12.232;2023-04-12T10:17:24;7.50;;;5.97;;
14007;SDS011;61651;45.508;12.232;2023-04-12T10:20:27;7.90;;;4.97;;
14007;SDS011;61651;45.508;12.232;2023-04-12T10:23:31;10.00;;;5.20;;
14007;SDS011;61651;45.508;12.232;2023-04-12T10:26:33;5.78;;;4.20;;
14007;SDS011;61651;45.508;12.232;2023-04-12T10:29:35;6.07;;;4.05;;
14007;SDS011;61651;45.508;12.232;2023-04-12T10:32:39;6.97;;;4.32;;
14007;SDS011;61651;45.508;12.232;2023-04-12T10:35:48;4.88;;;4.13;;
14007;SDS011;61651;45.508;12.232;2023-04-12T10:39:07;4.50;;;3.60;;
14007;SDS011;61651;45.508;12.232;2023-04-12T10:42:17;4.70;;;4.15;;
14007;SDS011;61651;45.508;12.232;2023-04-12T10:45:34;4.10;;;3.70;;
14007;SDS011;61651;45.508;12.232;2023-04-12T10:48:37;5.60;;;3.63;;
14007;SDS011;61651;45.508;12.232;2023-04-12T10:51:40;5.13;;;3.38;;
14007;SDS011;61651;45.508;12.232;2023-04-12T11:05:20;3.33;;;2.95;;
14007;SDS011;61651;45.508;12.232;2023-04-12T11:08:22;3.95;;;3.55;;
14007;SDS011;61651;45.508;12.232;2023-04-12T11:11:26;5.82;;;3.33;;
14007;SDS011;61651;45.508;12.232;2023-04-12T11:14:28;4.78;;;3.97;;
14007;SDS011;61651;45.508;12.232;2023-04-12T11:17:34;4.00;;;3.60;;
14007;SDS011;61651;45.508;12.232;2023-04-12T11:20:35;5.30;;;3.80;;
14007;SDS011;61651;45.508;12.232;2023-04-12T11:23:39;5.07;;;4.07;;
14007;SDS011;61651;45.508;12.232;2023-04-12T11:26:45;3.80;;;3.45;;
14007;SDS011;61651;45.508;12.232;2023-04-12T11:29:47;5.45;;;3.42;;
14007;SDS011;61651;45.508;12.232;2023-04-12T11:32:51;6.43;;;3.40;;
14007;SDS011;61651;45.508;12.232;2023-04-12T11:35:53;4.97;;;4.30;;
14007;SDS011;61651;45.508;12.232;2023-04-12T11:38:55;5.82;;;3.90;;
14007;SDS011;61651;45.508;12.232;2023-04-12T11:41:58;6.40;;;4.60;;
14007;SDS011;61651;45.508;12.232;2023-04-12T11:45:02;6.30;;;4.50;;
14007;SDS011;61651;45.508;12.232;2023-04-12T11:48:06;4.35;;;3.95;;
14007;SDS011;61651;45.508;12.232;2023-04-12T11:51:18;4.60;;;4.20;;
14007;SDS011;61651;45.508;12.232;2023-04-12T11:54:20;6.68;;;4.15;;
14007;SDS011;61651;45.508;12.232;2023-04-12T11:57:31;4.47;;;4.07;;
14007;SDS011;61651;45.508;12.232;2023-04-12T12:00:33;4.18;;;3.72;;
14007;SDS011;61651;45.508;12.232;2023-04-12T12:03:35;3.58;;;3.28;;
14007;SDS011;61651;45.508;12.232;2023-04-12T12:06:37;4.45;;;4.05;;
14007;SDS011;61651;45.508;12.232;2023-04-12T12:09:39;5.25;;;4.38;;
14007;SDS011;61651;45.508;12.232;2023-04-12T12:12:43;4.40;;;4.00;;
14007;SDS011;61651;45.508;12.232;2023-04-12T12:15:47;4.90;;;3.67;;
14007;SDS011;61651;45.508;12.232;2023-04-12T12:18:52;4.15;;;3.72;;
14007;SDS011;61651;45.508;12.232;2023-04-12T12:25:13;5.68;;;3.90;;
14007;SDS011;61651;45.508;12.232;2023-04-12T12:28:16;5.13;;;3.97;;
14007;SDS011;61651;45.508;12.232;2023-04-12T12:31:18;6.22;;;3.85;;
14007;SDS011;61651;45.508;12.232;2023-04-12T12:34:22;4.80;;;4.05;;
14007;SDS011;61651;45.508;12.232;2023-04-12T12:37:24;4.90;;;3.85;;
14007;SDS011;61651;45.508;12.232;2023-04-12T12:40:27;4.50;;;3.97;;
14007;SDS011;61651;45.508;12.232;2023-04-12T12:43:32;5.22;;;3.97;;
14007;SDS011;61651;45.508;12.232;2023-04-12T12:46:34;5.65;;;4.10;;
14007;SDS011;61651;45.508;12.232;2023-04-12T12:49:36;4.57;;;3.80;;
14007;SDS011;61651;45.508;12.232;2023-04-12T12:52:38;4.38;;;3.97;;
14007;SDS011;61651;45.508;12.232;2023-04-12T12:55:40;4.00;;;3.60;;
14007;SDS011;61651;45.508;12.232;2023-04-12T12:58:45;4.10;;;3.70;;
14007;SDS011;61651;45.508;12.232;2023-04-12T13:01:47;3.67;;;3.30;;
14007;SDS011;61651;45.508;12.232;2023-04-12T13:04:49;4.00;;;3.65;;
14007;SDS011;61651;45.508;12.232;2023-04-12T13:07:51;3.50;;;3.20;;
14007;SDS011;61651;45.508;12.232;2023-04-12T13:10:53;3.80;;;3.50;;
14007;SDS011;61651;45.508;12.232;2023-04-12T13:13:57;4.55;;;4.13;;
14007;SDS011;61651;45.508;12.232;2023-04-12T13:16:58;4.90;;;4.25;;
14007;SDS011;61651;45.508;12.232;2023-04-12T13:20:00;4.63;;;4.13;;
14007;SDS011;61651;45.508;12.232;2023-04-12T13:23:03;4.60;;;4.07;;
14007;SDS011;61651;45.508;12.232;2023-04-12T13:26:05;5.60;;;3.75;;
14007;SDS011;61651;45.508;12.232;2023-04-12T13:29:08;8.45;;;5.53;;
14007;SDS011;61651;45.508;12.232;2023-04-12T13:32:14;7.65;;;4.10;;
14007;SDS011;61651;45.508;12.232;2023-04-12T13:35:19;4.78;;;4.38;;
14007;SDS011;61651;45.508;12.232;2023-04-12T13:38:21;5.13;;;3.70;;
14007;SDS011;61651;45.508;12.232;2023-04-12T13:41:27;4.72;;;3.88;;
14007;SDS011;61651;45.508;12.232;2023-04-12T13:44:33;3.42;;;3.15;;
14007;SDS011;61651;45.508;12.232;2023-04-12T13:47:35;3.97;;;3.63;;
14007;SDS011;61651;45.508;12.232;2023-04-12T13:50:38;4.22;;;3.58;;
14007;SDS011;61651;45.508;12.232;2023-04-12T13:53:40;4.07;;;3.67;;
14007;SDS011;61651;45.508;12.232;2023-04-12T13:56:42;4.10;;;3.65;;
14007;SDS011;61651;45.508;12.232;2023-04-12T13:59:46;5.57;;;3.30;;
14007;SDS011;61651;45.508;12.232;2023-04-12T14:02:48;3.85;;;3.47;;
14007;SDS011;61651;45.508;12.232;2023-04-12T14:05:49;3.83;;;3.50;;
14007;SDS011;61651;45.508;12.232;2023-04-12T14:08:52;3.80;;;3.22;;
14007;SDS011;61651;45.508;12.232;2023-04-12T14:11:54;3.55;;;3.15;;
14007;SDS011;61651;45.508;12.232;2023-04-12T14:14:58;4.00;;;3.60;;
14007;SDS011;61651;45.508;12.232;2023-04-12T14:18:00;4.50;;;3.33;;
14007;SDS011;61651;45.508;12.232;2023-04-12T14:21:02;3.25;;;2.95;;
14007;SDS011;61651;45.508;12.232;2023-04-12T14:24:04;3.30;;;3.00;;
14007;SDS011;61651;45.508;12.232;2023-04-12T14:27:08;3.78;;;3.30;;
14007;SDS011;61651;45.508;12.232;2023-04-12T14:30:12;3.67;;;3.08;;
14007;SDS011;61651;45.508;12.232;2023-04-12T14:33:14;3.70;;;3.40;;
14007;SDS011;61651;45.508;12.232;2023-04-12T14:36:16;4.75;;;3.70;;
14007;SDS011;61651;45.508;12.232;2023-04-12T14:39:18;20.30;;;5.45;;
14007;SDS011;61651;45.508;12.232;2023-04-12T14:42:20;3.70;;;2.97;;
14007;SDS011;61651;45.508;12.232;2023-04-12T14:45:24;4.53;;;3.50;;
14007;SDS011;61651;45.508;12.232;2023-04-12T14:48:27;3.65;;;3.28;;
14007;SDS011;61651;45.508;12.232;2023-04-12T14:51:29;5.28;;;3.95;;
14007;SDS011;61651;45.508;12.232;2023-04-12T14:54:31;4.43;;;3.60;;
14007;SDS011;61651;45.508;12.232;2023-04-12T14:57:33;3.85;;;3.47;;
14007;SDS011;61651;45.508;12.232;2023-04-12T15:00:36;4.60;;;3.65;;
14007;SDS011;61651;45.508;12.232;2023-04-12T15:03:39;3.97;;;3.47;;
14007;SDS011;61651;45.508;12.232;2023-04-12T15:06:41;3.85;;;3.53;;
14007;SDS011;61651;45.508;12.232;2023-04-12T15:09:44;4.35;;;3.80;;
14007;SDS011;61651;45.508;12.232;2023-04-12T15:12:46;4.00;;;3.35;;
14007;SDS011;61651;45.508;12.232;2023-04-12T15:15:49;3.08;;;2.70;;
14007;SDS011;61651;45.508;12.232;2023-04-12T15:18:51;4.53;;;3.22;;
14007;SDS011;61651;45.508;12.232;2023-04-12T15:21:53;12.27;;;3.70;;
14007;SDS011;61651;45.508;12.232;2023-04-12T15:24:55;4.35;;;3.42;;
14007;SDS011;61651;45.508;12.232;2023-04-12T15:27:57;4.07;;;2.97;;
14007;SDS011;61651;45.508;12.232;2023-04-12T15:31:01;4.90;;;3.22;;
14007;SDS011;61651;45.508;12.232;2023-04-12T15:34:03;2.92;;;2.72;;
14007;SDS011;61651;45.508;12.232;2023-04-12T15:37:05;3.42;;;3.10;;
14007;SDS011;61651;45.508;12.232;2023-04-12T15:40:07;3.80;;;3.50;;
14007;SDS011;61651;45.508;12.232;2023-04-12T15:43:12;4.25;;;2.95;;
14007;SDS011;61651;45.508;12.232;2023-04-12T15:46:16;7.38;;;3.20;;
14007;SDS011;61651;45.508;12.232;2023-04-12T15:49:17;3.10;;;2.80;;
14007;SDS011;61651;45.508;12.232;2023-04-12T15:52:20;3.28;;;2.83;;
14007;SDS011;61651;45.508;12.232;2023-04-12T15:55:22;4.68;;;3.17;;
14007;SDS011;61651;45.508;12.232;2023-04-12T15:58:24;4.22;;;3.03;;
14007;SDS011;61651;45.508;12.232;2023-04-12T16:01:28;6.00;;;3.38;;
14007;SDS011;61651;45.508;12.232;2023-04-12T16:04:30;4.50;;;3.42;;
14007;SDS011;61651;45.508;12.232;2023-04-12T16:07:32;5.18;;;3.10;;
14007;SDS011;61651;45.508;12.232;2023-04-12T16:10:39;5.32;;;3.22;;
14007;SDS011;61651;45.508;12.232;2023-04-12T16:13:41;2.90;;;2.65;;
14007;SDS011;61651;45.508;12.232;2023-04-12T16:16:47;5.55;;;3.42;;
14007;SDS011;61651;45.508;12.232;2023-04-12T16:19:49;3.15;;;2.88;;
14007;SDS011;61651;45.508;12.232;2023-04-12T16:22:51;3.20;;;2.67;;
14007;SDS011;61651;45.508;12.232;2023-04-12T16:25:54;3.28;;;2.67;;
14007;SDS011;61651;45.508;12.232;2023-04-12T16:28:59;4.00;;;3.17;;
14007;SDS011;61651;45.508;12.232;2023-04-12T16:32:04;6.40;;;3.47;;
14007;SDS011;61651;45.508;12.232;2023-04-12T16:35:07;3.50;;;3.20;;
14007;SDS011;61651;45.508;12.232;2023-04-12T16:38:09;3.53;;;3.03;;
14007;SDS011;61651;45.508;12.232;2023-04-12T16:41:12;4.35;;;3.47;;
14007;SDS011;61651;45.508;12.232;2023-04-12T16:44:16;2.80;;;2.60;;
14007;SDS011;61651;45.508;12.232;2023-04-12T16:47:20;10.13;;;3.28;;
14007;SDS011;61651;45.508;12.232;2023-04-12T16:50:22;3.30;;;3.00;;
14007;SDS011;61651;45.508;12.232;2023-04-12T16:53:47;4.10;;;3.38;;
14007;SDS011;61651;45.508;12.232;2023-04-12T16:56:51;3.55;;;3.10;;
14007;SDS011;61651;45.508;12.232;2023-04-12T16:59:56;3.83;;;3.30;;
14007;SDS011;61651;45.508;12.232;2023-04-12T17:06:17;2.83;;;2.58;;
14007;SDS011;61651;45.508;12.232;2023-04-12T17:09:19;3.15;;;2.85;;
14007;SDS011;61651;45.508;12.232;2023-04-12T17:12:21;3.22;;;2.83;;
14007;SDS011;61651;45.508;12.232;2023-04-12T17:15:23;2.60;;;2.40;;
14007;SDS011;61651;45.508;12.232;2023-04-12T17:18:28;3.40;;;3.10;;
14007;SDS011;61651;45.508;12.232;2023-04-12T17:21:37;3.40;;;3.10;;
14007;SDS011;61651;45.508;12.232;2023-04-12T17:24:40;3.80;;;2.90;;
14007;SDS011;61651;45.508;12.232;2023-04-12T17:27:42;3.20;;;2.90;;
14007;SDS011;61651;45.508;12.232;2023-04-12T17:30:44;3.42;;;2.80;;
14007;SDS011;61651;45.508;12.232;2023-04-12T17:33:47;5.03;;;4.13;;
14007;SDS011;61651;45.508;12.232;2023-04-12T17:36:50;5.95;;;4.97;;
14007;SDS011;61651;45.508;12.232;2023-04-12T17:39:54;4.68;;;4.22;;
14007;SDS011;61651;45.508;12.232;2023-04-12T17:42:56;3.60;;;3.30;;
14007;SDS011;61651;45.508;12.232;2023-04-12T17:45:58;7.57;;;3.10;;
14007;SDS011;61651;45.508;12.232;2023-04-12T17:49:03;3.63;;;3.33;;
14007;SDS011;61651;45.508;12.232;2023-04-12T17:52:06;3.78;;;3.33;;
14007;SDS011;61651;45.508;12.232;2023-04-12T17:55:10;4.63;;;2.90;;
14007;SDS011;61651;45.508;12.232;2023-04-12T17:58:12;2.95;;;2.55;;
14007;SDS011;61651;45.508;12.232;2023-04-12T18:01:14;3.55;;;3.25;;
14007;SDS011;61651;45.508;12.232;2023-04-12T18:04:18;3.80;;;3.45;;
14007;SDS011;61651;45.508;12.232;2023-04-12T18:07:20;5.43;;;3.47;;
14007;SDS011;61651;45.508;12.232;2023-04-12T18:10:22;5.70;;;3.25;;
14007;SDS011;61651;45.508;12.232;2023-04-12T18:13:25;3.97;;;3.33;;
14007;SDS011;61651;45.508;12.232;2023-04-12T18:16:27;4.45;;;3.55;;
14007;SDS011;61651;45.508;12.232;2023-04-12T18:19:32;4.28;;;3.53;;